sensor_id;sensor_type;location;lat;lon;timestamp;temperature;humidity
31735;DHT22;18313;48.518;9.124;2023-06-10T00:01:16;17.40;98.80
31735;DHT22;18313;48.518;9.124;2023-06-10T00:03:44;17.40;99.20
31735;DHT22;18313;48.518;9.124;2023-06-10T00:06:12;17.30;99.20
31735;DHT22;18313;48.518;9.124;2023-06-10T00:08:39;17.20;98.90
31735;DHT22;18313;48.518;9.124;2023-06-10T00:11:06;17.20;99.80
31735;DHT22;18313;48.518;9.124;2023-06-10T00:13:33;17.20;99.90
31735;DHT22;18313;48.518;9.124;2023-06-10T00:16:00;17.10;99.90
31735;DHT22;18313;48.518;9.124;2023-06-10T00:18:27;17.20;99.50
31735;DHT22;18313;48.518;9.124;2023-06-10T00:20:58;17.10;99.60
31735;DHT22;18313;48.518;9.124;2023-06-10T00:23:31;17.20;99.50
31735;DHT22;18313;48.518;9.124;2023-06-10T00:25:58;17.30;99.20
31735;DHT22;18313;48.518;9.124;2023-06-10T00:28:26;17.40;98.90
31735;DHT22;18313;48.518;9.124;2023-06-10T00:30:53;17.60;98.50
31735;DHT22;18313;48.518;9.124;2023-06-10T00:33:20;17.60;98.40
31735;DHT22;18313;48.518;9.124;2023-06-10T00:35:48;17.60;98.20
31735;DHT22;18313;48.518;9.124;2023-06-10T00:38:15;17.60;98.40
31735;DHT22;18313;48.518;9.124;2023-06-10T00:40:42;17.60;98.50
31735;DHT22;18313;48.518;9.124;2023-06-10T00:43:09;17.60;98.40
31735;DHT22;18313;48.518;9.124;2023-06-10T00:45:36;17.60;98.40
31735;DHT22;18313;48.518;9.124;2023-06-10T00:48:04;17.60;98.50
31735;DHT22;18313;48.518;9.124;2023-06-10T00:50:31;17.40;98.70
31735;DHT22;18313;48.518;9.124;2023-06-10T00:52:59;17.30;99.00
31735;DHT22;18313;48.518;9.124;2023-06-10T00:55:27;17.20;99.10
31735;DHT22;18313;48.518;9.124;2023-06-10T00:57:54;17.00;99.20
31735;DHT22;18313;48.518;9.124;2023-06-10T01:00:21;17.10;99.60
31735;DHT22;18313;48.518;9.124;2023-06-10T01:02:48;17.00;99.90
31735;DHT22;18313;48.518;9.124;2023-06-10T01:05:16;16.90;99.80
31735;DHT22;18313;48.518;9.124;2023-06-10T01:10:41;16.80;99.90
31735;DHT22;18313;48.518;9.124;2023-06-10T01:13:10;16.70;99.90
31735;DHT22;18313;48.518;9.124;2023-06-10T01:15:41;16.60;99.90
31735;DHT22;18313;48.518;9.124;2023-06-10T01:18:09;16.60;99.90
31735;DHT22;18313;48.518;9.124;2023-06-10T01:20:43;16.60;99.90
31735;DHT22;18313;48.518;9.124;2023-06-10T01:23:11;16.50;99.90
31735;DHT22;18313;48.518;9.124;2023-06-10T01:25:41;16.40;99.90
31735;DHT22;18313;48.518;9.124;2023-06-10T01:28:14;16.50;99.90
31735;DHT22;18313;48.518;9.124;2023-06-10T01:31:09;16.40;99.90
31735;DHT22;18313;48.518;9.124;2023-06-10T01:33:42;16.30;99.90
31735;DHT22;18313;48.518;9.124;2023-06-10T01:36:11;16.40;99.90
31735;DHT22;18313;48.518;9.124;2023-06-10T01:38:46;16.30;99.90
31735;DHT22;18313;48.518;9.124;2023-06-10T01:41:16;16.30;99.90
31735;DHT22;18313;48.518;9.124;2023-06-10T01:43:45;16.20;99.90
31735;DHT22;18313;48.518;9.124;2023-06-10T01:46:14;16.10;99.90
31735;DHT22;18313;48.518;9.124;2023-06-10T01:48:42;16.00;99.90
31735;DHT22;18313;48.518;9.124;2023-06-10T01:51:09;16.00;99.90
31735;DHT22;18313;48.518;9.124;2023-06-10T01:53:36;15.90;99.90
31735;DHT22;18313;48.518;9.124;2023-06-10T01:56:03;15.80;99.90
31735;DHT22;18313;48.518;9.124;2023-06-10T01:58:30;15.80;99.90
31735;DHT22;18313;48.518;9.124;2023-06-10T02:00:57;15.80;99.90
31735;DHT22;18313;48.518;9.124;2023-06-10T02:03:24;15.80;99.90
31735;DHT22;18313;48.518;9.124;2023-06-10T02:05:52;15.70;99.90
31735;DHT22;18313;48.518;9.124;2023-06-10T02:08:19;15.60;99.90
31735;DHT22;18313;48.518;9.124;2023-06-10T02:10:47;15.60;99.90
31735;DHT22;18313;48.518;9.124;2023-06-10T02:13:14;15.60;99.90
31735;DHT22;18313;48.518;9.124;2023-06-10T02:15:41;15.50;99.90
31735;DHT22;18313;48.518;9.124;2023-06-10T02:18:08;15.40;99.90
31735;DHT22;18313;48.518;9.124;2023-06-10T02:20:35;15.40;99.90
31735;DHT22;18313;48.518;9.124;2023-06-10T02:23:02;15.40;99.90
31735;DHT22;18313;48.518;9.124;2023-06-10T02:25:30;15.30;99.90
31735;DHT22;18313;48.518;9.124;2023-06-10T02:27:57;15.30;99.90
31735;DHT22;18313;48.518;9.124;2023-06-10T02:30:24;15.20;99.90
31735;DHT22;18313;48.518;9.124;2023-06-10T02:32:52;15.20;99.90
31735;DHT22;18313;48.518;9.124;2023-06-10T02:35:19;15.20;99.90
31735;DHT22;18313;48.518;9.124;2023-06-10T02:37:46;15.10;99.90
31735;DHT22;18313;48.518;9.124;2023-06-10T02:40:14;15.10;99.90
31735;DHT22;18313;48.518;9.124;2023-06-10T02:42:41;15.10;99.90
31735;DHT22;18313;48.518;9.124;2023-06-10T02:45:08;15.10;99.90
31735;DHT22;18313;48.518;9.124;2023-06-10T02:47:37;15.10;99.90
31735;DHT22;18313;48.518;9.124;2023-06-10T02:50:06;15.10;99.90
31735;DHT22;18313;48.518;9.124;2023-06-10T02:52:34;15.20;99.90
31735;DHT22;18313;48.518;9.124;2023-06-10T02:55:01;15.10;99.90
31735;DHT22;18313;48.518;9.124;2023-06-10T02:57:28;15.00;99.90
31735;DHT22;18313;48.518;9.124;2023-06-10T02:59:55;15.00;99.90
31735;DHT22;18313;48.518;9.124;2023-06-10T03:02:22;15.00;99.90
31735;DHT22;18313;48.518;9.124;2023-06-10T03:04:55;14.90;99.90
31735;DHT22;18313;48.518;9.124;2023-06-10T03:07:23;14.90;99.90
31735;DHT22;18313;48.518;9.124;2023-06-10T03:09:50;14.90;99.90
31735;DHT22;18313;48.518;9.124;2023-06-10T03:12:17;14.80;99.90
31735;DHT22;18313;48.518;9.124;2023-06-10T03:14:44;14.80;99.90
31735;DHT22;18313;48.518;9.124;2023-06-10T03:17:11;14.80;99.90
31735;DHT22;18313;48.518;9.124;2023-06-10T03:19:39;14.70;99.90
31735;DHT22;18313;48.518;9.124;2023-06-10T03:22:10;14.80;99.90
31735;DHT22;18313;48.518;9.124;2023-06-10T03:24:38;14.80;99.90
31735;DHT22;18313;48.518;9.124;2023-06-10T03:27:07;14.80;99.90
31735;DHT22;18313;48.518;9.124;2023-06-10T03:29:35;14.80;99.90
31735;DHT22;18313;48.518;9.124;2023-06-10T03:32:03;14.70;99.90
31735;DHT22;18313;48.518;9.124;2023-06-10T03:34:30;14.60;99.90
31735;DHT22;18313;48.518;9.124;2023-06-10T03:36:58;14.60;99.90
31735;DHT22;18313;48.518;9.124;2023-06-10T03:39:25;14.60;99.90
31735;DHT22;18313;48.518;9.124;2023-06-10T03:41:55;14.50;99.90
31735;DHT22;18313;48.518;9.124;2023-06-10T03:44:27;14.50;99.90
31735;DHT22;18313;48.518;9.124;2023-06-10T03:46:55;14.40;99.90
31735;DHT22;18313;48.518;9.124;2023-06-10T03:49:23;14.40;99.90
31735;DHT22;18313;48.518;9.124;2023-06-10T03:51:53;14.40;99.90
31735;DHT22;18313;48.518;9.124;2023-06-10T03:54:20;14.40;99.90
31735;DHT22;18313;48.518;9.124;2023-06-10T03:56:48;14.40;99.90
31735;DHT22;18313;48.518;9.124;2023-06-10T03:59:15;14.40;99.90
31735;DHT22;18313;48.518;9.124;2023-06-10T04:01:42;14.40;99.90
31735;DHT22;18313;48.518;9.124;2023-06-10T04:04:13;14.40;99.90
31735;DHT22;18313;48.518;9.124;2023-06-10T04:06:41;14.50;99.90
31735;DHT22;18313;48.518;9.124;2023-06-10T04:09:10;14.40;99.90
31735;DHT22;18313;48.518;9.124;2023-06-10T04:11:37;14.40;99.90
31735;DHT22;18313;48.518;9.124;2023-06-10T04:14:05;14.40;99.90
31735;DHT22;18313;48.518;9.124;2023-06-10T04:16:32;14.40;99.90
31735;DHT22;18313;48.518;9.124;2023-06-10T04:18:59;14.40;99.90
31735;DHT22;18313;48.518;9.124;2023-06-10T04:21:27;14.40;99.90
31735;DHT22;18313;48.518;9.124;2023-06-10T04:23:54;14.40;99.90
31735;DHT22;18313;48.518;9.124;2023-06-10T04:26:21;14.50;99.90
31735;DHT22;18313;48.518;9.124;2023-06-10T04:28:48;14.50;99.90
31735;DHT22;18313;48.518;9.124;2023-06-10T04:31:16;14.50;99.90
31735;DHT22;18313;48.518;9.124;2023-06-10T04:33:43;14.60;99.90
31735;DHT22;18313;48.518;9.124;2023-06-10T04:36:10;14.60;99.90
31735;DHT22;18313;48.518;9.124;2023-06-10T04:38:37;14.70;99.90
31735;DHT22;18313;48.518;9.124;2023-06-10T04:41:04;14.80;99.90
31735;DHT22;18313;48.518;9.124;2023-06-10T04:43:31;15.00;99.90
31735;DHT22;18313;48.518;9.124;2023-06-10T04:45:58;15.10;99.90
31735;DHT22;18313;48.518;9.124;2023-06-10T04:48:26;15.30;99.90
31735;DHT22;18313;48.518;9.124;2023-06-10T04:50:53;15.60;99.90
31735;DHT22;18313;48.518;9.124;2023-06-10T04:53:20;15.70;99.90
31735;DHT22;18313;48.518;9.124;2023-06-10T04:55:48;15.90;99.90
31735;DHT22;18313;48.518;9.124;2023-06-10T04:58:15;16.00;99.90
31735;DHT22;18313;48.518;9.124;2023-06-10T05:00:42;16.20;99.90
31735;DHT22;18313;48.518;9.124;2023-06-10T05:03:10;16.40;99.90
31735;DHT22;18313;48.518;9.124;2023-06-10T05:05:37;16.60;99.90
31735;DHT22;18313;48.518;9.124;2023-06-10T05:08:05;16.70;99.90
31735;DHT22;18313;48.518;9.124;2023-06-10T05:10:34;16.90;99.90
31735;DHT22;18313;48.518;9.124;2023-06-10T05:13:01;17.10;99.90
31735;DHT22;18313;48.518;9.124;2023-06-10T05:15:30;17.20;99.90
31735;DHT22;18313;48.518;9.124;2023-06-10T05:17:57;17.40;99.90
31735;DHT22;18313;48.518;9.124;2023-06-10T05:20:29;17.60;99.90
31735;DHT22;18313;48.518;9.124;2023-06-10T05:22:57;17.80;99.90
31735;DHT22;18313;48.518;9.124;2023-06-10T05:25:25;17.90;99.90
31735;DHT22;18313;48.518;9.124;2023-06-10T05:27:53;18.00;99.90
31735;DHT22;18313;48.518;9.124;2023-06-10T05:30:20;18.10;99.90
31735;DHT22;18313;48.518;9.124;2023-06-10T05:32:48;18.10;99.90
31735;DHT22;18313;48.518;9.124;2023-06-10T05:35:15;18.10;99.90
31735;DHT22;18313;48.518;9.124;2023-06-10T05:37:43;18.10;99.90
31735;DHT22;18313;48.518;9.124;2023-06-10T05:40:11;18.20;99.90
31735;DHT22;18313;48.518;9.124;2023-06-10T05:42:38;18.30;99.90
31735;DHT22;18313;48.518;9.124;2023-06-10T05:45:05;18.40;99.90
31735;DHT22;18313;48.518;9.124;2023-06-10T05:47:34;18.50;99.90
31735;DHT22;18313;48.518;9.124;2023-06-10T05:50:01;18.50;99.90
31735;DHT22;18313;48.518;9.124;2023-06-10T05:52:29;18.60;99.90
31735;DHT22;18313;48.518;9.124;2023-06-10T05:54:56;18.60;99.90
31735;DHT22;18313;48.518;9.124;2023-06-10T05:57:23;18.70;99.90
31735;DHT22;18313;48.518;9.124;2023-06-10T05:59:50;18.80;99.90
31735;DHT22;18313;48.518;9.124;2023-06-10T06:02:17;19.00;99.90
31735;DHT22;18313;48.518;9.124;2023-06-10T06:04:45;19.10;99.90
31735;DHT22;18313;48.518;9.124;2023-06-10T06:07:12;19.20;99.90
31735;DHT22;18313;48.518;9.124;2023-06-10T06:09:39;19.10;99.90
31735;DHT22;18313;48.518;9.124;2023-06-10T06:12:07;19.20;99.90
31735;DHT22;18313;48.518;9.124;2023-06-10T06:14:37;19.30;99.90
31735;DHT22;18313;48.518;9.124;2023-06-10T06:17:08;19.30;99.90
31735;DHT22;18313;48.518;9.124;2023-06-10T06:19:35;19.40;99.90
31735;DHT22;18313;48.518;9.124;2023-06-10T06:22:02;19.40;99.90
31735;DHT22;18313;48.518;9.124;2023-06-10T06:24:29;19.50;99.90
31735;DHT22;18313;48.518;9.124;2023-06-10T06:26:57;19.80;99.90
31735;DHT22;18313;48.518;9.124;2023-06-10T06:29:24;19.90;99.90
31735;DHT22;18313;48.518;9.124;2023-06-10T06:31:52;19.90;99.90
31735;DHT22;18313;48.518;9.124;2023-06-10T06:34:19;19.90;99.90
31735;DHT22;18313;48.518;9.124;2023-06-10T06:36:46;20.10;99.90
31735;DHT22;18313;48.518;9.124;2023-06-10T06:39:13;20.20;99.90
31735;DHT22;18313;48.518;9.124;2023-06-10T06:41:40;20.30;99.90
31735;DHT22;18313;48.518;9.124;2023-06-10T06:44:07;20.40;99.90
31735;DHT22;18313;48.518;9.124;2023-06-10T06:46:34;20.40;99.90
31735;DHT22;18313;48.518;9.124;2023-06-10T06:49:02;20.50;99.90
31735;DHT22;18313;48.518;9.124;2023-06-10T06:51:29;20.60;99.90
31735;DHT22;18313;48.518;9.124;2023-06-10T06:53:56;20.70;99.90
31735;DHT22;18313;48.518;9.124;2023-06-10T06:56:25;20.70;99.90
31735;DHT22;18313;48.518;9.124;2023-06-10T06:58:54;20.80;99.90
31735;DHT22;18313;48.518;9.124;2023-06-10T07:01:24;20.80;99.90
31735;DHT22;18313;48.518;9.124;2023-06-10T07:03:51;20.90;99.90
31735;DHT22;18313;48.518;9.124;2023-06-10T07:06:18;21.10;99.90
31735;DHT22;18313;48.518;9.124;2023-06-10T07:08:45;21.40;99.90
31735;DHT22;18313;48.518;9.124;2023-06-10T07:11:12;21.60;99.90
31735;DHT22;18313;48.518;9.124;2023-06-10T07:13:41;21.70;99.90
31735;DHT22;18313;48.518;9.124;2023-06-10T07:16:08;21.80;99.90
31735;DHT22;18313;48.518;9.124;2023-06-10T07:18:35;21.90;99.90
31735;DHT22;18313;48.518;9.124;2023-06-10T07:21:02;22.20;99.90
31735;DHT22;18313;48.518;9.124;2023-06-10T07:23:29;22.40;99.70
31735;DHT22;18313;48.518;9.124;2023-06-10T07:25:57;22.60;99.90
31735;DHT22;18313;48.518;9.124;2023-06-10T07:28:24;22.70;99.30
31735;DHT22;18313;48.518;9.124;2023-06-10T07:30:51;22.70;99.70
31735;DHT22;18313;48.518;9.124;2023-06-10T07:33:18;22.80;98.90
31735;DHT22;18313;48.518;9.124;2023-06-10T07:35:45;22.70;98.80
31735;DHT22;18313;48.518;9.124;2023-06-10T07:38:12;22.70;98.70
31735;DHT22;18313;48.518;9.124;2023-06-10T07:40:39;22.80;99.10
31735;DHT22;18313;48.518;9.124;2023-06-10T07:43:07;23.00;99.30
31735;DHT22;18313;48.518;9.124;2023-06-10T07:45:34;23.30;98.90
31735;DHT22;18313;48.518;9.124;2023-06-10T07:48:01;23.50;98.40
31735;DHT22;18313;48.518;9.124;2023-06-10T07:50:29;23.70;97.90
31735;DHT22;18313;48.518;9.124;2023-06-10T07:52:56;23.60;97.90
31735;DHT22;18313;48.518;9.124;2023-06-10T07:55:23;23.60;97.60
31735;DHT22;18313;48.518;9.124;2023-06-10T07:57:53;23.60;97.80
31735;DHT22;18313;48.518;9.124;2023-06-10T08:00:21;23.80;97.70
31735;DHT22;18313;48.518;9.124;2023-06-10T08:02:48;23.80;97.50
31735;DHT22;18313;48.518;9.124;2023-06-10T08:05:15;23.80;97.30
31735;DHT22;18313;48.518;9.124;2023-06-10T08:07:43;23.90;97.70
31735;DHT22;18313;48.518;9.124;2023-06-10T08:10:10;24.10;97.70
31735;DHT22;18313;48.518;9.124;2023-06-10T08:12:37;24.40;97.40
31735;DHT22;18313;48.518;9.124;2023-06-10T08:15:05;24.80;96.20
31735;DHT22;18313;48.518;9.124;2023-06-10T08:17:32;25.00;96.20
31735;DHT22;18313;48.518;9.124;2023-06-10T08:20:00;25.00;95.40
31735;DHT22;18313;48.518;9.124;2023-06-10T08:22:27;24.80;96.30
31735;DHT22;18313;48.518;9.124;2023-06-10T08:24:56;25.00;95.80
31735;DHT22;18313;48.518;9.124;2023-06-10T08:27:23;25.10;95.70
31735;DHT22;18313;48.518;9.124;2023-06-10T08:29:50;25.20;95.50
31735;DHT22;18313;48.518;9.124;2023-06-10T08:32:17;25.20;95.80
31735;DHT22;18313;48.518;9.124;2023-06-10T08:34:44;25.20;95.40
31735;DHT22;18313;48.518;9.124;2023-06-10T08:37:12;25.20;95.20
31735;DHT22;18313;48.518;9.124;2023-06-10T08:39:39;25.30;95.70
31735;DHT22;18313;48.518;9.124;2023-06-10T08:44:46;25.60;95.40
31735;DHT22;18313;48.518;9.124;2023-06-10T08:47:15;25.60;94.60
31735;DHT22;18313;48.518;9.124;2023-06-10T08:49:46;25.70;94.30
31735;DHT22;18313;48.518;9.124;2023-06-10T08:52:18;26.00;94.60
31735;DHT22;18313;48.518;9.124;2023-06-10T08:55:00;26.10;94.00
31735;DHT22;18313;48.518;9.124;2023-06-10T08:57:30;26.10;93.90
31735;DHT22;18313;48.518;9.124;2023-06-10T08:59:58;26.10;94.10
31735;DHT22;18313;48.518;9.124;2023-06-10T09:02:27;26.10;94.00
31735;DHT22;18313;48.518;9.124;2023-06-10T09:04:56;26.00;94.30
31735;DHT22;18313;48.518;9.124;2023-06-10T09:07:24;26.00;94.00
31735;DHT22;18313;48.518;9.124;2023-06-10T09:09:52;26.10;93.80
31735;DHT22;18313;48.518;9.124;2023-06-10T09:12:20;26.20;94.00
31735;DHT22;18313;48.518;9.124;2023-06-10T09:14:47;26.40;93.50
31735;DHT22;18313;48.518;9.124;2023-06-10T09:17:16;26.40;93.70
31735;DHT22;18313;48.518;9.124;2023-06-10T09:19:44;26.50;93.30
31735;DHT22;18313;48.518;9.124;2023-06-10T09:22:11;26.50;93.20
31735;DHT22;18313;48.518;9.124;2023-06-10T09:24:39;26.90;93.40
31735;DHT22;18313;48.518;9.124;2023-06-10T09:27:08;27.30;93.10
31735;DHT22;18313;48.518;9.124;2023-06-10T09:29:52;27.10;92.60
31735;DHT22;18313;48.518;9.124;2023-06-10T09:32:21;27.20;92.40
31735;DHT22;18313;48.518;9.124;2023-06-10T09:34:48;27.00;92.60
31735;DHT22;18313;48.518;9.124;2023-06-10T09:37:23;26.90;92.30
31735;DHT22;18313;48.518;9.124;2023-06-10T09:40:07;26.90;92.70
31735;DHT22;18313;48.518;9.124;2023-06-10T09:42:38;26.80;92.30
31735;DHT22;18313;48.518;9.124;2023-06-10T09:45:06;26.90;92.60
31735;DHT22;18313;48.518;9.124;2023-06-10T09:47:34;27.00;92.30
31735;DHT22;18313;48.518;9.124;2023-06-10T09:50:01;27.10;92.20
31735;DHT22;18313;48.518;9.124;2023-06-10T09:52:29;27.40;91.90
31735;DHT22;18313;48.518;9.124;2023-06-10T09:55:01;27.50;91.40
31735;DHT22;18313;48.518;9.124;2023-06-10T09:57:32;27.70;90.90
31735;DHT22;18313;48.518;9.124;2023-06-10T10:00:07;27.70;90.70
31735;DHT22;18313;48.518;9.124;2023-06-10T10:03:04;27.60;90.50
31735;DHT22;18313;48.518;9.124;2023-06-10T10:05:33;27.70;90.40
31735;DHT22;18313;48.518;9.124;2023-06-10T10:08:00;27.40;89.90
31735;DHT22;18313;48.518;9.124;2023-06-10T10:10:27;27.30;90.60
31735;DHT22;18313;48.518;9.124;2023-06-10T10:12:56;27.60;90.50
31735;DHT22;18313;48.518;9.124;2023-06-10T10:15:29;27.60;90.20
31735;DHT22;18313;48.518;9.124;2023-06-10T10:20:34;27.60;90.00
31735;DHT22;18313;48.518;9.124;2023-06-10T10:23:04;27.70;89.80
31735;DHT22;18313;48.518;9.124;2023-06-10T10:25:35;27.70;89.40
31735;DHT22;18313;48.518;9.124;2023-06-10T10:28:11;27.60;89.10
31735;DHT22;18313;48.518;9.124;2023-06-10T10:30:50;27.60;90.60
31735;DHT22;18313;48.518;9.124;2023-06-10T10:33:20;27.70;89.20
31735;DHT22;18313;48.518;9.124;2023-06-10T10:35:50;27.90;88.60
31735;DHT22;18313;48.518;9.124;2023-06-10T10:38:18;28.20;87.20
31735;DHT22;18313;48.518;9.124;2023-06-10T10:40:46;28.30;88.00
31735;DHT22;18313;48.518;9.124;2023-06-10T10:43:14;28.40;87.60
31735;DHT22;18313;48.518;9.124;2023-06-10T10:45:46;28.40;85.40
31735;DHT22;18313;48.518;9.124;2023-06-10T10:48:14;28.60;88.60
31735;DHT22;18313;48.518;9.124;2023-06-10T10:50:42;28.80;86.80
31735;DHT22;18313;48.518;9.124;2023-06-10T10:53:09;29.00;87.20
31735;DHT22;18313;48.518;9.124;2023-06-10T10:55:36;29.30;84.10
31735;DHT22;18313;48.518;9.124;2023-06-10T10:58:04;29.10;84.10
31735;DHT22;18313;48.518;9.124;2023-06-10T11:00:33;28.90;85.60
31735;DHT22;18313;48.518;9.124;2023-06-10T11:03:06;29.20;85.20
31735;DHT22;18313;48.518;9.124;2023-06-10T11:05:45;29.40;84.20
31735;DHT22;18313;48.518;9.124;2023-06-10T11:11:22;29.60;82.80
31735;DHT22;18313;48.518;9.124;2023-06-10T11:16:41;29.20;83.70
31735;DHT22;18313;48.518;9.124;2023-06-10T11:19:09;28.90;85.40
31735;DHT22;18313;48.518;9.124;2023-06-10T11:21:59;28.50;84.50
31735;DHT22;18313;48.518;9.124;2023-06-10T11:24:27;28.70;85.70
31735;DHT22;18313;48.518;9.124;2023-06-10T11:26:55;29.10;85.10
31735;DHT22;18313;48.518;9.124;2023-06-10T11:30:37;29.10;84.80
31735;DHT22;18313;48.518;9.124;2023-06-10T11:32:50;29.50;84.10
31735;DHT22;18313;48.518;9.124;2023-06-10T11:35:19;29.60;82.10
31735;DHT22;18313;48.518;9.124;2023-06-10T11:37:48;29.60;82.60
31735;DHT22;18313;48.518;9.124;2023-06-10T11:40:16;29.90;82.70
31735;DHT22;18313;48.518;9.124;2023-06-10T11:42:43;30.60;82.80
31735;DHT22;18313;48.518;9.124;2023-06-10T11:45:15;30.90;81.80
31735;DHT22;18313;48.518;9.124;2023-06-10T11:47:58;31.40;79.70
31735;DHT22;18313;48.518;9.124;2023-06-10T11:50:30;31.40;79.70
31735;DHT22;18313;48.518;9.124;2023-06-10T11:52:58;31.50;79.20
31735;DHT22;18313;48.518;9.124;2023-06-10T11:55:39;31.10;78.90
31735;DHT22;18313;48.518;9.124;2023-06-10T12:00:51;30.50;78.70
31735;DHT22;18313;48.518;9.124;2023-06-10T12:03:20;30.20;79.70
31735;DHT22;18313;48.518;9.124;2023-06-10T12:06:05;29.80;79.90
31735;DHT22;18313;48.518;9.124;2023-06-10T12:08:33;29.10;79.70
31735;DHT22;18313;48.518;9.124;2023-06-10T12:11:07;28.80;78.80
31735;DHT22;18313;48.518;9.124;2023-06-10T12:13:34;28.70;79.80
31735;DHT22;18313;48.518;9.124;2023-06-10T12:16:09;28.50;80.20
31735;DHT22;18313;48.518;9.124;2023-06-10T12:18:37;28.50;81.20
31735;DHT22;18313;48.518;9.124;2023-06-10T12:21:15;28.80;81.00
31735;DHT22;18313;48.518;9.124;2023-06-10T12:24:03;29.40;79.90
31735;DHT22;18313;48.518;9.124;2023-06-10T12:26:39;30.10;81.60
31735;DHT22;18313;48.518;9.124;2023-06-10T12:29:17;30.70;79.40
31735;DHT22;18313;48.518;9.124;2023-06-10T12:32:10;30.70;77.50
31735;DHT22;18313;48.518;9.124;2023-06-10T12:34:39;30.00;78.20
31735;DHT22;18313;48.518;9.124;2023-06-10T12:37:11;30.10;78.20
31735;DHT22;18313;48.518;9.124;2023-06-10T12:39:42;30.60;78.90
31735;DHT22;18313;48.518;9.124;2023-06-10T12:42:09;31.10;77.30
31735;DHT22;18313;48.518;9.124;2023-06-10T12:44:40;31.30;78.60
31735;DHT22;18313;48.518;9.124;2023-06-10T12:47:11;31.60;77.50
31735;DHT22;18313;48.518;9.124;2023-06-10T12:49:41;31.60;76.30
31735;DHT22;18313;48.518;9.124;2023-06-10T12:52:08;31.70;76.90
31735;DHT22;18313;48.518;9.124;2023-06-10T12:54:35;32.00;75.20
31735;DHT22;18313;48.518;9.124;2023-06-10T12:57:02;31.70;77.40
31735;DHT22;18313;48.518;9.124;2023-06-10T12:59:29;32.00;73.40
31735;DHT22;18313;48.518;9.124;2023-06-10T13:01:58;31.90;74.40
31735;DHT22;18313;48.518;9.124;2023-06-10T13:04:26;31.70;74.50
31735;DHT22;18313;48.518;9.124;2023-06-10T13:06:53;31.40;74.40
31735;DHT22;18313;48.518;9.124;2023-06-10T13:09:21;31.10;76.20
31735;DHT22;18313;48.518;9.124;2023-06-10T13:11:48;31.00;76.70
31735;DHT22;18313;48.518;9.124;2023-06-10T13:14:15;31.20;77.10
31735;DHT22;18313;48.518;9.124;2023-06-10T13:16:42;31.70;74.70
31735;DHT22;18313;48.518;9.124;2023-06-10T13:19:11;31.90;74.00
31735;DHT22;18313;48.518;9.124;2023-06-10T13:21:38;32.00;72.70
31735;DHT22;18313;48.518;9.124;2023-06-10T13:24:07;32.10;71.90
31735;DHT22;18313;48.518;9.124;2023-06-10T13:26:34;31.60;73.20
31735;DHT22;18313;48.518;9.124;2023-06-10T13:29:01;31.50;73.80
31735;DHT22;18313;48.518;9.124;2023-06-10T13:31:28;31.70;73.00
31735;DHT22;18313;48.518;9.124;2023-06-10T13:33:55;32.20;73.80
31735;DHT22;18313;48.518;9.124;2023-06-10T13:36:22;32.60;72.40
31735;DHT22;18313;48.518;9.124;2023-06-10T13:38:51;32.80;72.80
31735;DHT22;18313;48.518;9.124;2023-06-10T13:41:18;32.50;71.60
31735;DHT22;18313;48.518;9.124;2023-06-10T13:43:45;32.00;72.90
31735;DHT22;18313;48.518;9.124;2023-06-10T13:46:12;31.90;72.80
31735;DHT22;18313;48.518;9.124;2023-06-10T13:48:39;31.60;72.90
31735;DHT22;18313;48.518;9.124;2023-06-10T13:51:07;31.60;74.00
31735;DHT22;18313;48.518;9.124;2023-06-10T13:53:36;31.90;73.20
31735;DHT22;18313;48.518;9.124;2023-06-10T13:56:03;32.00;70.70
31735;DHT22;18313;48.518;9.124;2023-06-10T13:58:30;32.00;73.00
31735;DHT22;18313;48.518;9.124;2023-06-10T14:00:57;31.60;72.40
31735;DHT22;18313;48.518;9.124;2023-06-10T14:03:25;31.20;74.00
31735;DHT22;18313;48.518;9.124;2023-06-10T14:05:52;31.10;74.60
31735;DHT22;18313;48.518;9.124;2023-06-10T14:08:19;31.50;73.40
31735;DHT22;18313;48.518;9.124;2023-06-10T14:10:46;32.00;73.90
31735;DHT22;18313;48.518;9.124;2023-06-10T14:13:13;31.90;71.10
31735;DHT22;18313;48.518;9.124;2023-06-10T14:15:40;32.00;70.50
31735;DHT22;18313;48.518;9.124;2023-06-10T14:18:07;32.00;71.50
31735;DHT22;18313;48.518;9.124;2023-06-10T14:20:34;31.90;70.60
31735;DHT22;18313;48.518;9.124;2023-06-10T14:23:01;31.70;71.20
31735;DHT22;18313;48.518;9.124;2023-06-10T14:25:28;31.70;72.40
31735;DHT22;18313;48.518;9.124;2023-06-10T14:27:55;31.70;71.30
31735;DHT22;18313;48.518;9.124;2023-06-10T14:30:22;31.80;71.70
31735;DHT22;18313;48.518;9.124;2023-06-10T14:32:49;32.10;71.20
31735;DHT22;18313;48.518;9.124;2023-06-10T14:35:16;32.40;70.70
31735;DHT22;18313;48.518;9.124;2023-06-10T14:37:43;32.00;70.60
31735;DHT22;18313;48.518;9.124;2023-06-10T14:40:10;31.90;71.20
31735;DHT22;18313;48.518;9.124;2023-06-10T14:42:37;31.60;71.50
31735;DHT22;18313;48.518;9.124;2023-06-10T14:45:05;31.20;72.80
31735;DHT22;18313;48.518;9.124;2023-06-10T14:47:33;31.10;71.70
31735;DHT22;18313;48.518;9.124;2023-06-10T14:50:00;30.70;72.40
31735;DHT22;18313;48.518;9.124;2023-06-10T14:52:27;30.50;71.90
31735;DHT22;18313;48.518;9.124;2023-06-10T14:54:54;30.70;74.80
31735;DHT22;18313;48.518;9.124;2023-06-10T14:57:21;31.00;72.80
31735;DHT22;18313;48.518;9.124;2023-06-10T14:59:48;31.00;72.70
31735;DHT22;18313;48.518;9.124;2023-06-10T15:02:15;31.00;73.30
31735;DHT22;18313;48.518;9.124;2023-06-10T15:04:42;31.00;73.10
31735;DHT22;18313;48.518;9.124;2023-06-10T15:07:09;31.00;72.50
31735;DHT22;18313;48.518;9.124;2023-06-10T15:09:37;30.70;71.70
31735;DHT22;18313;48.518;9.124;2023-06-10T15:12:04;30.70;72.80
31735;DHT22;18313;48.518;9.124;2023-06-10T15:14:32;30.90;73.40
31735;DHT22;18313;48.518;9.124;2023-06-10T15:16:59;31.40;72.50
31735;DHT22;18313;48.518;9.124;2023-06-10T15:19:27;31.70;71.00
31735;DHT22;18313;48.518;9.124;2023-06-10T15:21:54;31.90;74.30
31735;DHT22;18313;48.518;9.124;2023-06-10T15:24:21;32.10;71.30
31735;DHT22;18313;48.518;9.124;2023-06-10T15:26:48;31.70;72.80
31735;DHT22;18313;48.518;9.124;2023-06-10T15:29:16;31.20;72.60
31735;DHT22;18313;48.518;9.124;2023-06-10T15:31:43;30.90;73.30
31735;DHT22;18313;48.518;9.124;2023-06-10T15:34:10;30.70;74.60
31735;DHT22;18313;48.518;9.124;2023-06-10T15:36:37;30.20;75.40
31735;DHT22;18313;48.518;9.124;2023-06-10T15:39:05;29.70;75.00
31735;DHT22;18313;48.518;9.124;2023-06-10T15:41:34;29.70;77.00
31735;DHT22;18313;48.518;9.124;2023-06-10T15:44:01;30.00;76.30
31735;DHT22;18313;48.518;9.124;2023-06-10T15:46:29;29.90;76.30
31735;DHT22;18313;48.518;9.124;2023-06-10T15:48:57;29.80;77.40
31735;DHT22;18313;48.518;9.124;2023-06-10T15:51:24;29.60;76.90
31735;DHT22;18313;48.518;9.124;2023-06-10T15:53:51;29.60;78.00
31735;DHT22;18313;48.518;9.124;2023-06-10T15:56:18;29.50;78.70